Braintree, Massachusetts
Current Conditions -  °F | °C
As of 7:35 AM on Friday 24 Oct 2014 (Local Time) from KOWD Reporting Station
Haze Haze  
Wind Chill: 50°   Ceiling: 800
Heat Index: 50°   Visibility: 4mi
Dew Point: 48°   Wind: 7mph
Humidity: 93%   Direction: 330°NNW
Pressure: 29.68"   Gusts: NA
Location:  42.21°N, 71°W
Report Text: KOWD 241135Z 33006KT 4SM BR BKN008 OVC016 10/09 A2968 RMK AO2 CIG 007V012 T01000089
Loading
Personal Weather Stations






























Interactive Weather Map
Tropical Storm Tracking
New forecast layout! Learn more

10-Day Weather Forecast

Advertisements
Track Severe Weather on mobile